Sada, Spain
Current Conditions -  °F | °C
As of 4:30 PM on Friday 28 Nov 2014 (Local Time) from LECO Reporting Station
Scattered Clouds Scattered Clouds  
Wind Chill: 11°   Ceiling: Unl
Heat Index: 11°   Visibility: 6mi
Dew Point: 10°   Wind: 0mph
Humidity: 94%   Direction: NA
Pressure: 29.09"   Gusts: NA
Location:  43.36°N, 8.26°W
Report Text: LECO 281530Z 00000KT 9999 FEW022 SCT035 11/10 Q0985 NOSIG
Loading
Personal Weather Stations






























Interactive Weather Map New forecast layout! Learn more

10-Day Weather Forecast

Advertisements
Track Severe Weather on mobile